sensor_id;sensor_type;location;lat;lon;timestamp;pressure;altitude;pressure_sealevel;temperature;humidity
5877;BME280;2964;42.144;24.730;2024-01-30T00:00:24;142196.34;;;2.30;66.25
5877;BME280;2964;42.144;24.730;2024-01-30T00:02:51;142137.72;;;2.06;67.29
5877;BME280;2964;42.144;24.730;2024-01-30T00:05:19;142177.63;;;2.22;66.43
5877;BME280;2964;42.144;24.730;2024-01-30T00:07:45;142091.59;;;1.87;67.42
5877;BME280;2964;42.144;24.730;2024-01-30T00:10:13;142104.09;;;1.92;68.54
5877;BME280;2964;42.144;24.730;2024-01-30T00:12:39;142104.09;;;1.92;68.96
5877;BME280;2964;42.144;24.730;2024-01-30T00:15:06;142090.38;;;1.86;69.47
5877;BME280;2964;42.144;24.730;2024-01-30T00:17:35;142087.84;;;1.85;70.71
5877;BME280;2964;42.144;24.730;2024-01-30T00:20:04;142092.84;;;1.87;69.62
5877;BME280;2964;42.144;24.730;2024-01-30T00:22:33;142094.06;;;1.88;70.44
5877;BME280;2964;42.144;24.730;2024-01-30T00:25:00;142091.59;;;1.87;70.24
5877;BME280;2964;42.144;24.730;2024-01-30T00:27:27;142116.50;;;1.97;69.90
5877;BME280;2964;42.144;24.730;2024-01-30T00:29:54;142124.00;;;2.00;69.50
5877;BME280;2964;42.144;24.730;2024-01-30T00:32:20;142111.53;;;1.95;68.94
5877;BME280;2964;42.144;24.730;2024-01-30T00:34:48;142124.00;;;2.00;68.75
5877;BME280;2964;42.144;24.730;2024-01-30T00:37:15;142104.09;;;1.92;69.16
5877;BME280;2964;42.144;24.730;2024-01-30T00:39:43;142064.19;;;1.76;69.81
5877;BME280;2964;42.144;24.730;2024-01-30T00:42:10;142046.72;;;1.68;70.60
5877;BME280;2964;42.144;24.730;2024-01-30T00:44:36;142019.31;;;1.57;71.95
5877;BME280;2964;42.144;24.730;2024-01-30T00:47:04;142021.75;;;1.58;72.13
5877;BME280;2964;42.144;24.730;2024-01-30T00:49:31;142041.75;;;1.66;71.90
5877;BME280;2964;42.144;24.730;2024-01-30T00:51:57;142041.75;;;1.66;72.02
5877;BME280;2964;42.144;24.730;2024-01-30T00:54:24;142074.13;;;1.80;70.71
5877;BME280;2964;42.144;24.730;2024-01-30T00:56:52;142092.84;;;1.87;70.42
5877;BME280;2964;42.144;24.730;2024-01-30T00:59:19;142107.78;;;1.93;69.71
5877;BME280;2964;42.144;24.730;2024-01-30T01:01:45;142114.03;;;1.96;69.42
5877;BME280;2964;42.144;24.730;2024-01-30T01:04:12;142101.56;;;1.91;70.01
5877;BME280;2964;42.144;24.730;2024-01-30T01:06:39;142072.91;;;1.79;69.52
5877;BME280;2964;42.144;24.730;2024-01-30T01:09:08;142069.16;;;1.78;70.29
5877;BME280;2964;42.144;24.730;2024-01-30T01:11:34;142044.19;;;1.67;70.72
5877;BME280;2964;42.144;24.730;2024-01-30T01:14:02;142009.28;;;1.53;72.62
5877;BME280;2964;42.144;24.730;2024-01-30T01:16:29;141966.94;;;1.35;73.90
5877;BME280;2964;42.144;24.730;2024-01-30T01:18:56;141908.38;;;1.11;76.88
5877;BME280;2964;42.144;24.730;2024-01-30T01:21:22;141872.25;;;0.96;78.27
5877;BME280;2964;42.144;24.730;2024-01-30T01:23:49;141821.13;;;0.75;79.38
5877;BME280;2964;42.144;24.730;2024-01-30T01:26:16;141776.31;;;0.57;79.78
5877;BME280;2964;42.144;24.730;2024-01-30T01:28:42;141824.88;;;0.77;81.24
5877;BME280;2964;42.144;24.730;2024-01-30T01:31:10;141776.31;;;0.57;83.29
5877;BME280;2964;42.144;24.730;2024-01-30T01:33:37;141736.44;;;0.41;83.16
5877;BME280;2964;42.144;24.730;2024-01-30T01:36:04;141750.19;;;0.46;83.77
5877;BME280;2964;42.144;24.730;2024-01-30T01:38:32;141748.91;;;0.46;83.98
5877;BME280;2964;42.144;24.730;2024-01-30T01:40:58;141883.44;;;1.01;81.45
5877;BME280;2964;42.144;24.730;2024-01-30T01:43:25;141748.91;;;0.46;83.60
5877;BME280;2964;42.144;24.730;2024-01-30T01:45:51;141771.31;;;0.55;83.41
5877;BME280;2964;42.144;24.730;2024-01-30T01:48:20;141756.41;;;0.49;83.55
5877;BME280;2964;42.144;24.730;2024-01-30T01:50:47;141604.50;;;-0.14;83.92
5877;BME280;2964;42.144;24.730;2024-01-30T01:53:15;141856.03;;;0.90;81.48
5877;BME280;2964;42.144;24.730;2024-01-30T01:55:42;141694.13;;;0.23;84.20
5877;BME280;2964;42.144;24.730;2024-01-30T01:58:09;141857.25;;;0.90;81.82
5877;BME280;2964;42.144;24.730;2024-01-30T02:00:38;141761.38;;;0.51;82.39
5877;BME280;2964;42.144;24.730;2024-01-30T02:03:06;141682.94;;;0.18;83.97
5877;BME280;2964;42.144;24.730;2024-01-30T02:05:36;141575.91;;;-0.26;86.65
5877;BME280;2964;42.144;24.730;2024-01-30T02:08:04;141640.59;;;0.01;85.75
5877;BME280;2964;42.144;24.730;2024-01-30T02:10:31;141654.28;;;0.07;85.39
5877;BME280;2964;42.144;24.730;2024-01-30T02:12:58;141620.69;;;-0.07;85.59
5877;BME280;2964;42.144;24.730;2024-01-30T02:15:25;141607.00;;;-0.13;87.79
5877;BME280;2964;42.144;24.730;2024-01-30T02:17:51;141558.47;;;-0.33;88.44
5877;BME280;2964;42.144;24.730;2024-01-30T02:20:18;141612.00;;;-0.11;87.90
5877;BME280;2964;42.144;24.730;2024-01-30T02:22:47;141549.75;;;-0.36;89.00
5877;BME280;2964;42.144;24.730;2024-01-30T02:25:14;141669.22;;;0.13;87.96
5877;BME280;2964;42.144;24.730;2024-01-30T02:27:41;141658.03;;;0.08;88.25
5877;BME280;2964;42.144;24.730;2024-01-30T02:30:09;141493.75;;;-0.60;90.10
5877;BME280;2964;42.144;24.730;2024-01-30T02:32:35;141558.47;;;-0.33;89.95
5877;BME280;2964;42.144;24.730;2024-01-30T02:35:03;141560.94;;;-0.32;90.97
5877;BME280;2964;42.144;24.730;2024-01-30T02:37:29;141570.88;;;-0.28;91.06
5877;BME280;2964;42.144;24.730;2024-01-30T02:39:57;141577.13;;;-0.25;90.70
5877;BME280;2964;42.144;24.730;2024-01-30T02:42:24;141534.78;;;-0.43;90.80
5877;BME280;2964;42.144;24.730;2024-01-30T02:44:51;141431.53;;;-0.85;92.85
5877;BME280;2964;42.144;24.730;2024-01-30T02:47:18;141421.59;;;-0.89;93.69
5877;BME280;2964;42.144;24.730;2024-01-30T02:49:44;141496.25;;;-0.59;93.53
5877;BME280;2964;42.144;24.730;2024-01-30T02:52:11;141462.63;;;-0.72;92.96
5877;BME280;2964;42.144;24.730;2024-01-30T02:54:38;141435.28;;;-0.84;94.20
5877;BME280;2964;42.144;24.730;2024-01-30T02:57:06;141421.59;;;-0.89;92.90
5877;BME280;2964;42.144;24.730;2024-01-30T02:59:33;141588.31;;;-0.21;91.25
5877;BME280;2964;42.144;24.730;2024-01-30T03:02:01;141434.06;;;-0.84;91.63
5877;BME280;2964;42.144;24.730;2024-01-30T03:04:27;141518.66;;;-0.49;93.70
5877;BME280;2964;42.144;24.730;2024-01-30T03:06:55;141598.31;;;-0.16;90.60
5877;BME280;2964;42.144;24.730;2024-01-30T03:09:22;141503.69;;;-0.55;92.37
5877;BME280;2964;42.144;24.730;2024-01-30T03:11:48;141421.59;;;-0.89;93.37
5877;BME280;2964;42.144;24.730;2024-01-30T03:14:16;141491.28;;;-0.61;92.74
5877;BME280;2964;42.144;24.730;2024-01-30T03:16:43;141552.22;;;-0.35;92.72
5877;BME280;2964;42.144;24.730;2024-01-30T03:19:10;141410.44;;;-0.94;94.69
5877;BME280;2964;42.144;24.730;2024-01-30T03:21:36;141343.28;;;-1.22;95.63
5877;BME280;2964;42.144;24.730;2024-01-30T03:24:04;141349.47;;;-1.19;96.57
5877;BME280;2964;42.144;24.730;2024-01-30T03:26:30;141394.25;;;-1.01;96.58
5877;BME280;2964;42.144;24.730;2024-01-30T03:28:57;141496.25;;;-0.59;95.22
5877;BME280;2964;42.144;24.730;2024-01-30T03:31:25;141569.66;;;-0.28;93.78
5877;BME280;2964;42.144;24.730;2024-01-30T03:33:52;141496.25;;;-0.59;95.50
5877;BME280;2964;42.144;24.730;2024-01-30T03:36:19;141453.94;;;-0.76;95.59
5877;BME280;2964;42.144;24.730;2024-01-30T03:38:46;141463.91;;;-0.72;95.65
5877;BME280;2964;42.144;24.730;2024-01-30T03:41:12;141473.84;;;-0.68;95.59
5877;BME280;2964;42.144;24.730;2024-01-30T03:43:40;141488.78;;;-0.62;95.38
5877;BME280;2964;42.144;24.730;2024-01-30T03:46:07;141458.91;;;-0.74;95.36
5877;BME280;2964;42.144;24.730;2024-01-30T03:48:35;141488.78;;;-0.62;95.55
5877;BME280;2964;42.144;24.730;2024-01-30T03:51:02;141448.97;;;-0.78;95.35
5877;BME280;2964;42.144;24.730;2024-01-30T03:53:29;141435.28;;;-0.84;95.86
5877;BME280;2964;42.144;24.730;2024-01-30T03:55:56;141466.38;;;-0.71;94.90
5877;BME280;2964;42.144;24.730;2024-01-30T03:58:22;141580.88;;;-0.24;93.90
5877;BME280;2964;42.144;24.730;2024-01-30T04:00:49;141511.16;;;-0.52;94.60
5877;BME280;2964;42.144;24.730;2024-01-30T04:03:16;141491.28;;;-0.61;94.85
5877;BME280;2964;42.144;24.730;2024-01-30T04:05:45;141491.28;;;-0.61;95.27
5877;BME280;2964;42.144;24.730;2024-01-30T04:08:12;141493.75;;;-0.60;95.40
5877;BME280;2964;42.144;24.730;2024-01-30T04:10:38;141546.00;;;-0.38;94.69
5877;BME280;2964;42.144;24.730;2024-01-30T04:13:05;141468.88;;;-0.70;93.80
5877;BME280;2964;42.144;24.730;2024-01-30T04:15:32;141486.31;;;-0.63;94.52
5877;BME280;2964;42.144;24.730;2024-01-30T04:17:58;141456.44;;;-0.75;94.86
5877;BME280;2964;42.144;24.730;2024-01-30T04:20:25;141552.22;;;-0.35;94.42
5877;BME280;2964;42.144;24.730;2024-01-30T04:22:53;141444.00;;;-0.80;94.39
5877;BME280;2964;42.144;24.730;2024-01-30T04:25:20;141431.53;;;-0.85;94.69
5877;BME280;2964;42.144;24.730;2024-01-30T04:27:47;141421.59;;;-0.89;94.83
5877;BME280;2964;42.144;24.730;2024-01-30T04:30:13;141518.66;;;-0.49;94.13
5877;BME280;2964;42.144;24.730;2024-01-30T04:32:40;141522.38;;;-0.48;93.58
5877;BME280;2964;42.144;24.730;2024-01-30T04:35:07;141502.47;;;-0.56;93.83
5877;BME280;2964;42.144;24.730;2024-01-30T04:37:34;141613.22;;;-0.10;92.95
5877;BME280;2964;42.144;24.730;2024-01-30T04:40:02;141582.09;;;-0.23;92.39
5877;BME280;2964;42.144;24.730;2024-01-30T04:42:30;141506.19;;;-0.54;93.62
5877;BME280;2964;42.144;24.730;2024-01-30T04:44:57;141544.78;;;-0.38;93.67
5877;BME280;2964;42.144;24.730;2024-01-30T04:47:23;141687.91;;;0.21;91.80
5877;BME280;2964;42.144;24.730;2024-01-30T04:49:51;141674.22;;;0.15;91.03
5877;BME280;2964;42.144;24.730;2024-01-30T04:52:18;141491.28;;;-0.61;91.44
5877;BME280;2964;42.144;24.730;2024-01-30T04:54:44;141605.72;;;-0.13;91.64
5877;BME280;2964;42.144;24.730;2024-01-30T04:57:12;141573.38;;;-0.27;92.30
5877;BME280;2964;42.144;24.730;2024-01-30T04:59:39;141546.00;;;-0.38;92.98
5877;BME280;2964;42.144;24.730;2024-01-30T05:02:06;141513.69;;;-0.51;93.69
5877;BME280;2964;42.144;24.730;2024-01-30T05:04:33;141572.16;;;-0.27;93.32
5877;BME280;2964;42.144;24.730;2024-01-30T05:07:00;141661.78;;;0.10;92.07
5877;BME280;2964;42.144;24.730;2024-01-30T05:09:32;141600.75;;;-0.15;92.74
5877;BME280;2964;42.144;24.730;2024-01-30T05:11:59;141577.13;;;-0.25;92.87
5877;BME280;2964;42.144;24.730;2024-01-30T05:14:27;141613.22;;;-0.10;92.84
5877;BME280;2964;42.144;24.730;2024-01-30T05:16:54;141588.31;;;-0.21;92.98
5877;BME280;2964;42.144;24.730;2024-01-30T05:19:20;141615.69;;;-0.09;91.78
5877;BME280;2964;42.144;24.730;2024-01-30T05:21:48;141578.34;;;-0.25;92.94
5877;BME280;2964;42.144;24.730;2024-01-30T05:24:15;141624.41;;;-0.06;92.59
5877;BME280;2964;42.144;24.730;2024-01-30T05:26:42;141730.25;;;0.38;91.35
5877;BME280;2964;42.144;24.730;2024-01-30T05:29:10;141737.72;;;0.41;90.44
5877;BME280;2964;42.144;24.730;2024-01-30T05:31:41;141639.38;;;0.01;91.78
5877;BME280;2964;42.144;24.730;2024-01-30T05:34:07;141655.53;;;0.07;92.22
5877;BME280;2964;42.144;24.730;2024-01-30T05:36:34;141671.72;;;0.14;92.85
5877;BME280;2964;42.144;24.730;2024-01-30T05:39:01;141670.50;;;0.13;92.46
5877;BME280;2964;42.144;24.730;2024-01-30T05:41:29;141453.94;;;-0.76;93.00
5877;BME280;2964;42.144;24.730;2024-01-30T05:43:55;141731.47;;;0.38;92.50
5877;BME280;2964;42.144;24.730;2024-01-30T05:46:22;141685.41;;;0.19;92.41
5877;BME280;2964;42.144;24.730;2024-01-30T05:48:50;141807.44;;;0.70;90.97
5877;BME280;2964;42.144;24.730;2024-01-30T05:51:16;141808.72;;;0.70;90.24
5877;BME280;2964;42.144;24.730;2024-01-30T05:53:43;141702.84;;;0.27;92.32
5877;BME280;2964;42.144;24.730;2024-01-30T05:56:10;141786.28;;;0.61;91.65
5877;BME280;2964;42.144;24.730;2024-01-30T05:58:36;141752.66;;;0.47;92.28
5877;BME280;2964;42.144;24.730;2024-01-30T06:01:06;141795.03;;;0.65;91.39
5877;BME280;2964;42.144;24.730;2024-01-30T06:03:34;141762.59;;;0.51;92.12
5877;BME280;2964;42.144;24.730;2024-01-30T06:06:02;141819.91;;;0.75;91.27
5877;BME280;2964;42.144;24.730;2024-01-30T06:08:28;141813.69;;;0.72;91.27
5877;BME280;2964;42.144;24.730;2024-01-30T06:10:54;141715.31;;;0.32;92.47
5877;BME280;2964;42.144;24.730;2024-01-30T06:13:21;141753.88;;;0.48;92.25
5877;BME280;2964;42.144;24.730;2024-01-30T06:15:48;141778.81;;;0.58;92.02
5877;BME280;2964;42.144;24.730;2024-01-30T06:18:14;141742.69;;;0.43;92.24
5877;BME280;2964;42.144;24.730;2024-01-30T06:20:41;141772.59;;;0.55;92.15
5877;BME280;2964;42.144;24.730;2024-01-30T06:23:09;141848.59;;;0.87;91.06
5877;BME280;2964;42.144;24.730;2024-01-30T06:25:38;141885.94;;;1.02;90.06
5877;BME280;2964;42.144;24.730;2024-01-30T06:28:05;141867.25;;;0.94;89.51
5877;BME280;2964;42.144;24.730;2024-01-30T06:30:31;141899.66;;;1.08;89.00
5877;BME280;2964;42.144;24.730;2024-01-30T06:32:58;141919.56;;;1.16;88.89
5877;BME280;2964;42.144;24.730;2024-01-30T06:35:25;141804.97;;;0.69;89.57
5877;BME280;2964;42.144;24.730;2024-01-30T06:37:54;141531.09;;;-0.44;91.47
5877;BME280;2964;42.144;24.730;2024-01-30T06:40:22;141806.19;;;0.69;91.66
5877;BME280;2964;42.144;24.730;2024-01-30T06:42:49;141834.84;;;0.81;91.32
5877;BME280;2964;42.144;24.730;2024-01-30T06:45:15;141849.81;;;0.87;90.75
5877;BME280;2964;42.144;24.730;2024-01-30T06:47:42;141863.53;;;0.93;90.55
5877;BME280;2964;42.144;24.730;2024-01-30T06:50:09;141844.84;;;0.85;90.38
5877;BME280;2964;42.144;24.730;2024-01-30T06:52:36;141842.31;;;0.84;90.74
5877;BME280;2964;42.144;24.730;2024-01-30T06:55:03;141804.97;;;0.69;91.65
5877;BME280;2964;42.144;24.730;2024-01-30T06:57:31;141826.16;;;0.77;91.44
5877;BME280;2964;42.144;24.730;2024-01-30T06:59:57;141829.84;;;0.79;91.45
5877;BME280;2964;42.144;24.730;2024-01-30T07:02:24;141887.19;;;1.03;90.18
5877;BME280;2964;42.144;24.730;2024-01-30T07:04:50;141867.25;;;0.94;90.50
5877;BME280;2964;42.144;24.730;2024-01-30T07:07:17;141894.66;;;1.06;89.83
5877;BME280;2964;42.144;24.730;2024-01-30T07:09:50;141819.91;;;0.75;89.67
5877;BME280;2964;42.144;24.730;2024-01-30T07:12:21;141884.72;;;1.02;89.69
5877;BME280;2964;42.144;24.730;2024-01-30T07:14:51;141954.47;;;1.30;88.66
5877;BME280;2964;42.144;24.730;2024-01-30T07:17:18;142014.31;;;1.55;87.05
5877;BME280;2964;42.144;24.730;2024-01-30T07:19:45;141971.91;;;1.38;86.77
5877;BME280;2964;42.144;24.730;2024-01-30T07:22:12;141834.84;;;0.81;88.56
5877;BME280;2964;42.144;24.730;2024-01-30T07:24:42;142006.81;;;1.52;86.75
5877;BME280;2964;42.144;24.730;2024-01-30T07:27:13;141276.16;;;-1.49;86.03
5877;BME280;2964;42.144;24.730;2024-01-30T07:29:40;141822.41;;;0.76;87.24
5877;BME280;2964;42.144;24.730;2024-01-30T07:32:10;141747.69;;;0.45;86.84
5877;BME280;2964;42.144;24.730;2024-01-30T07:34:38;141874.72;;;0.98;89.03
5877;BME280;2964;42.144;24.730;2024-01-30T07:37:05;141984.38;;;1.43;86.82
5877;BME280;2964;42.144;24.730;2024-01-30T07:39:33;142011.81;;;1.54;85.94
5877;BME280;2964;42.144;24.730;2024-01-30T07:42:01;142066.66;;;1.77;85.41
5877;BME280;2964;42.144;24.730;2024-01-30T07:44:28;142052.94;;;1.71;85.19
5877;BME280;2964;42.144;24.730;2024-01-30T07:46:54;142085.34;;;1.84;83.94
5877;BME280;2964;42.144;24.730;2024-01-30T07:49:24;142081.63;;;1.83;84.33
5877;BME280;2964;42.144;24.730;2024-01-30T07:51:53;142148.97;;;2.10;83.96
5877;BME280;2964;42.144;24.730;2024-01-30T07:54:23;142136.50;;;2.05;83.32
5877;BME280;2964;42.144;24.730;2024-01-30T07:56:50;142178.88;;;2.23;83.42
5877;BME280;2964;42.144;24.730;2024-01-30T07:59:17;142226.28;;;2.42;82.54
5877;BME280;2964;42.144;24.730;2024-01-30T08:01:47;142160.16;;;2.15;81.68
5877;BME280;2964;42.144;24.730;2024-01-30T08:04:13;142147.69;;;2.10;82.10
5877;BME280;2964;42.144;24.730;2024-01-30T08:06:41;142133.97;;;2.04;81.55
5877;BME280;2964;42.144;24.730;2024-01-30T08:09:08;142183.84;;;2.25;80.86
5877;BME280;2964;42.144;24.730;2024-01-30T08:11:36;142193.88;;;2.29;80.18
5877;BME280;2964;42.144;24.730;2024-01-30T08:14:02;142146.47;;;2.09;80.45
5877;BME280;2964;42.144;24.730;2024-01-30T08:16:29;142220.03;;;2.40;80.41
5877;BME280;2964;42.144;24.730;2024-01-30T08:18:56;142312.38;;;2.78;77.88
5877;BME280;2964;42.144;24.730;2024-01-30T08:21:23;142311.13;;;2.77;75.54
5877;BME280;2964;42.144;24.730;2024-01-30T08:23:51;142303.63;;;2.74;76.08
5877;BME280;2964;42.144;24.730;2024-01-30T08:26:17;142336.06;;;2.87;73.32
5877;BME280;2964;42.144;24.730;2024-01-30T08:28:44;142384.75;;;3.07;73.72
5877;BME280;2964;42.144;24.730;2024-01-30T08:31:11;142357.31;;;2.96;72.76
5877;BME280;2964;42.144;24.730;2024-01-30T08:33:38;142408.50;;;3.17;71.51
5877;BME280;2964;42.144;24.730;2024-01-30T08:36:05;142338.59;;;2.88;71.37
5877;BME280;2964;42.144;24.730;2024-01-30T08:38:30;142389.75;;;3.09;71.36
5877;BME280;2964;42.144;24.730;2024-01-30T08:41:01;142424.69;;;3.24;70.58
5877;BME280;2964;42.144;24.730;2024-01-30T08:43:28;142323.63;;;2.82;68.68
5877;BME280;2964;42.144;24.730;2024-01-30T08:45:55;142460.91;;;3.39;67.81
5877;BME280;2964;42.144;24.730;2024-01-30T08:48:25;142337.34;;;2.88;67.13
5877;BME280;2964;42.144;24.730;2024-01-30T08:50:54;142376.00;;;3.04;67.59
5877;BME280;2964;42.144;24.730;2024-01-30T08:53:20;142542.06;;;3.72;66.67
5877;BME280;2964;42.144;24.730;2024-01-30T08:55:47;142459.66;;;3.38;65.30
5877;BME280;2964;42.144;24.730;2024-01-30T08:58:16;142490.88;;;3.51;66.32
5877;BME280;2964;42.144;24.730;2024-01-30T09:00:43;142418.47;;;3.21;65.02
5877;BME280;2964;42.144;24.730;2024-01-30T09:03:10;142484.63;;;3.48;64.48
5877;BME280;2964;42.144;24.730;2024-01-30T09:05:39;142675.75;;;4.27;62.68
5877;BME280;2964;42.144;24.730;2024-01-30T09:08:06;142598.28;;;3.95;63.28
5877;BME280;2964;42.144;24.730;2024-01-30T09:10:33;142558.31;;;3.79;62.21
5877;BME280;2964;42.144;24.730;2024-01-30T09:13:00;142455.91;;;3.37;63.37
5877;BME280;2964;42.144;24.730;2024-01-30T09:15:28;142500.88;;;3.55;64.45
5877;BME280;2964;42.144;24.730;2024-01-30T09:17:54;142515.84;;;3.61;64.81
5877;BME280;2964;42.144;24.730;2024-01-30T09:20:20;142570.81;;;3.84;63.91
5877;BME280;2964;42.144;24.730;2024-01-30T09:22:48;142598.28;;;3.95;61.95
5877;BME280;2964;42.144;24.730;2024-01-30T09:25:15;142633.28;;;4.10;61.24
5877;BME280;2964;42.144;24.730;2024-01-30T09:27:42;142545.81;;;3.74;63.21
5877;BME280;2964;42.144;24.730;2024-01-30T09:30:09;142473.41;;;3.44;63.90
5877;BME280;2964;42.144;24.730;2024-01-30T09:32:37;142582.03;;;3.89;63.92
5877;BME280;2964;42.144;24.730;2024-01-30T09:35:04;142598.28;;;3.95;62.36
5877;BME280;2964;42.144;24.730;2024-01-30T09:37:31;142632.00;;;4.09;62.12
5877;BME280;2964;42.144;24.730;2024-01-30T09:39:58;142609.50;;;4.00;62.35
5877;BME280;2964;42.144;24.730;2024-01-30T09:42:28;142608.28;;;3.99;62.37
5877;BME280;2964;42.144;24.730;2024-01-30T09:44:58;142610.78;;;4.00;62.24
5877;BME280;2964;42.144;24.730;2024-01-30T09:47:25;142665.75;;;4.23;61.36
5877;BME280;2964;42.144;24.730;2024-01-30T09:49:55;142713.22;;;4.42;61.10
5877;BME280;2964;42.144;24.730;2024-01-30T09:52:23;142749.44;;;4.57;61.46
5877;BME280;2964;42.144;24.730;2024-01-30T09:54:51;142628.25;;;4.07;61.81
5877;BME280;2964;42.144;24.730;2024-01-30T09:57:18;142568.28;;;3.83;62.58
5877;BME280;2964;42.144;24.730;2024-01-30T09:59:46;142594.53;;;3.94;63.71
5877;BME280;2964;42.144;24.730;2024-01-30T10:02:13;142698.22;;;4.36;62.48
5877;BME280;2964;42.144;24.730;2024-01-30T10:04:40;142662.00;;;4.21;62.06
5877;BME280;2964;42.144;24.730;2024-01-30T10:07:10;142723.25;;;4.47;60.78
5877;BME280;2964;42.144;24.730;2024-01-30T10:09:38;142625.78;;;4.06;62.28
5877;BME280;2964;42.144;24.730;2024-01-30T10:12:05;142680.72;;;4.29;61.62
5877;BME280;2964;42.144;24.730;2024-01-30T10:14:33;142705.75;;;4.39;60.68
5877;BME280;2964;42.144;24.730;2024-01-30T10:17:01;142743.22;;;4.55;60.11
5877;BME280;2964;42.144;24.730;2024-01-30T10:19:28;142805.72;;;4.80;57.77
5877;BME280;2964;42.144;24.730;2024-01-30T10:21:54;142808.25;;;4.81;58.15
5877;BME280;2964;42.144;24.730;2024-01-30T10:24:25;142769.47;;;4.66;58.37
5877;BME280;2964;42.144;24.730;2024-01-30T10:26:53;142783.22;;;4.71;58.17
5877;BME280;2964;42.144;24.730;2024-01-30T10:29:19;142913.25;;;5.25;54.62
5877;BME280;2964;42.144;24.730;2024-01-30T10:31:57;142865.72;;;5.05;54.82
5877;BME280;2964;42.144;24.730;2024-01-30T10:34:24;142813.22;;;4.83;54.96
5877;BME280;2964;42.144;24.730;2024-01-30T10:36:59;142900.72;;;5.19;53.90
5877;BME280;2964;42.144;24.730;2024-01-30T10:39:29;142884.50;;;5.13;56.04
5877;BME280;2964;42.144;24.730;2024-01-30T10:41:59;142903.25;;;5.20;52.93
5877;BME280;2964;42.144;24.730;2024-01-30T10:44:33;142912.00;;;5.24;52.87
5877;BME280;2964;42.144;24.730;2024-01-30T10:47:06;142863.25;;;5.04;52.30
5877;BME280;2964;42.144;24.730;2024-01-30T10:49:36;142925.75;;;5.30;53.48
5877;BME280;2964;42.144;24.730;2024-01-30T10:52:04;143040.81;;;5.77;51.36
5877;BME280;2964;42.144;24.730;2024-01-30T10:54:34;143017.06;;;5.67;50.85
5877;BME280;2964;42.144;24.730;2024-01-30T10:57:03;143003.31;;;5.61;50.59
5877;BME280;2964;42.144;24.730;2024-01-30T10:59:31;142918.25;;;5.27;51.70
5877;BME280;2964;42.144;24.730;2024-01-30T11:01:59;143057.09;;;5.84;51.94
5877;BME280;2964;42.144;24.730;2024-01-30T11:04:35;143045.81;;;5.79;50.24
5877;BME280;2964;42.144;24.730;2024-01-30T11:07:02;142923.25;;;5.29;51.10
5877;BME280;2964;42.144;24.730;2024-01-30T11:09:29;142819.47;;;4.86;52.57
5877;BME280;2964;42.144;24.730;2024-01-30T11:11:58;143045.81;;;5.79;49.68
5877;BME280;2964;42.144;24.730;2024-01-30T11:14:27;143179.78;;;6.34;48.95
5877;BME280;2964;42.144;24.730;2024-01-30T11:16:57;143196.06;;;6.41;48.77
5877;BME280;2964;42.144;24.730;2024-01-30T11:19:24;143168.53;;;6.29;48.45
5877;BME280;2964;42.144;24.730;2024-01-30T11:21:52;143288.69;;;6.79;47.92
5877;BME280;2964;42.144;24.730;2024-01-30T11:24:20;143335.03;;;6.98;45.74
5877;BME280;2964;42.144;24.730;2024-01-30T11:26:48;143197.31;;;6.41;45.88
5877;BME280;2964;42.144;24.730;2024-01-30T11:29:18;143197.31;;;6.41;46.34
5877;BME280;2964;42.144;24.730;2024-01-30T11:31:54;143244.88;;;6.61;47.10
5877;BME280;2964;42.144;24.730;2024-01-30T11:34:21;143272.44;;;6.72;46.31
5877;BME280;2964;42.144;24.730;2024-01-30T11:36:51;143052.09;;;5.82;47.30
5877;BME280;2964;42.144;24.730;2024-01-30T11:39:20;143047.09;;;5.79;48.33
5877;BME280;2964;42.144;24.730;2024-01-30T11:41:50;143029.56;;;5.72;49.64
5877;BME280;2964;42.144;24.730;2024-01-30T11:44:18;142993.31;;;5.57;49.14
5877;BME280;2964;42.144;24.730;2024-01-30T11:46:47;142992.00;;;5.57;50.42
5877;BME280;2964;42.144;24.730;2024-01-30T11:49:14;143033.34;;;5.74;49.58
5877;BME280;2964;42.144;24.730;2024-01-30T11:51:41;143000.78;;;5.60;48.96
5877;BME280;2964;42.144;24.730;2024-01-30T11:54:08;142983.31;;;5.53;49.42
5877;BME280;2964;42.144;24.730;2024-01-30T11:56:36;142999.53;;;5.60;50.15
5877;BME280;2964;42.144;24.730;2024-01-30T11:59:03;143034.56;;;5.74;49.54
5877;BME280;2964;42.144;24.730;2024-01-30T12:01:32;142983.31;;;5.53;49.80
5877;BME280;2964;42.144;24.730;2024-01-30T12:03:59;143027.06;;;5.71;48.81
5877;BME280;2964;42.144;24.730;2024-01-30T12:06:26;142955.75;;;5.42;48.64
5877;BME280;2964;42.144;24.730;2024-01-30T12:08:57;142950.75;;;5.40;48.73
5877;BME280;2964;42.144;24.730;2024-01-30T12:11:25;142954.50;;;5.41;48.54
5877;BME280;2964;42.144;24.730;2024-01-30T12:13:52;142928.22;;;5.31;48.09
5877;BME280;2964;42.144;24.730;2024-01-30T12:16:19;142898.25;;;5.18;48.95
5877;BME280;2964;42.144;24.730;2024-01-30T12:18:48;142933.25;;;5.33;48.81
5877;BME280;2964;42.144;24.730;2024-01-30T12:21:16;142979.53;;;5.52;48.29
5877;BME280;2964;42.144;24.730;2024-01-30T12:23:44;142868.22;;;5.06;50.01
5877;BME280;2964;42.144;24.730;2024-01-30T12:26:11;142979.53;;;5.52;49.38
5877;BME280;2964;42.144;24.730;2024-01-30T12:28:47;142888.22;;;5.14;49.40
5877;BME280;2964;42.144;24.730;2024-01-30T12:31:14;142923.25;;;5.29;49.71
5877;BME280;2964;42.144;24.730;2024-01-30T12:33:41;142947.00;;;5.38;49.14
5877;BME280;2964;42.144;24.730;2024-01-30T12:36:09;143003.31;;;5.61;48.44
5877;BME280;2964;42.144;24.730;2024-01-30T12:38:37;142990.78;;;5.56;48.64
5877;BME280;2964;42.144;24.730;2024-01-30T12:41:07;142895.72;;;5.17;48.93
5877;BME280;2964;42.144;24.730;2024-01-30T12:43:33;143014.53;;;5.66;47.85
5877;BME280;2964;42.144;24.730;2024-01-30T12:46:00;142998.31;;;5.59;48.17
5877;BME280;2964;42.144;24.730;2024-01-30T12:48:28;143010.81;;;5.65;47.99
5877;BME280;2964;42.144;24.730;2024-01-30T12:50:56;142948.28;;;5.39;48.66
5877;BME280;2964;42.144;24.730;2024-01-30T12:53:24;143019.59;;;5.68;48.14
5877;BME280;2964;42.144;24.730;2024-01-30T12:55:51;142952.03;;;5.40;48.48
5877;BME280;2964;42.144;24.730;2024-01-30T12:58:19;142963.28;;;5.45;48.90
5877;BME280;2964;42.144;24.730;2024-01-30T13:00:46;143014.53;;;5.66;48.44
5877;BME280;2964;42.144;24.730;2024-01-30T13:03:13;142988.31;;;5.55;48.19
5877;BME280;2964;42.144;24.730;2024-01-30T13:05:39;142940.75;;;5.36;49.82
5877;BME280;2964;42.144;24.730;2024-01-30T13:08:06;142987.03;;;5.55;48.78